| time (UTC) | temp F | wind direction | speed MPH | gust MPH | rain 1hr in | rain 24hr in | rain mn in | humidity % | barometer mb |
| 20260504100503 | 53 | 273 | 5.0 | 8.0 | 0.00 | 0.03 | 0.00 | 48 | 1005.8 |
| 20260504082006 | 53 | 271 | 4.0 | 9.0 | 0.00 | 0.03 | 0.00 | 47 | 1005.1 |
| 20260504081504 | 53 | 267 | 6.0 | 9.0 | 0.00 | 0.03 | 0.00 | 46 | 1005.1 |
| 20260504081007 | 53 | 269 | 6.0 | 9.0 | 0.00 | 0.03 | 0.00 | 47 | 1005.1 |
| 20260504080504 | 53 | 251 | 5.0 | 9.0 | 0.00 | 0.03 | 0.00 | 47 | 1005.1 |
| 20260504050504 | 54 | 282 | 7.0 | 9.0 | 0.00 | 0.03 | 0.03 | 52 | 1006.6 |
| 20260504050012 | 55 | 262 | 5.0 | 8.0 | 0.00 | 0.03 | 0.03 | 51 | 1006.6 |
| 20260504045503 | 54 | 256 | 5.0 | 8.0 | 0.00 | 0.03 | 0.03 | 52 | 1006.7 |
| 20260504045004 | 54 | 254 | 4.0 | 7.0 | 0.00 | 0.03 | 0.03 | 52 | 1006.8 |
| 20260504044514 | 54 | 267 | 3.0 | 8.0 | 0.00 | 0.03 | 0.03 | 52 | 1006.8 |
| 20260504044006 | 55 | 263 | 4.0 | 8.0 | 0.00 | 0.03 | 0.03 | 51 | 1006.8 |
| 20260504043508 | 55 | 244 | 4.0 | 7.0 | 0.00 | 0.03 | 0.03 | 53 | 1006.9 |
| 20260504043011 | 55 | 253 | 4.0 | 7.0 | 0.00 | 0.03 | 0.03 | 51 | 1006.9 |
| 20260504042506 | 57 | 256 | 4.0 | 9.0 | 0.00 | 0.03 | 0.03 | 47 | 1006.9 |
| 20260504042005 | 57 | 238 | 5.0 | 9.0 | 0.00 | 0.03 | 0.03 | 47 | 1007.0 |
| 20260504041512 | 56 | 265 | 4.0 | 9.0 | 0.00 | 0.03 | 0.03 | 49 | 1007.0 |
| 20260504041004 | 56 | 246 | 5.0 | 9.0 | 0.00 | 0.03 | 0.03 | 50 | 1007.1 |
| 20260504040507 | 54 | 360 | 3.0 | 8.0 | 0.00 | 0.03 | 0.03 | 53 | 1007.0 |
| 20260504040016 | 54 | 248 | 4.0 | 6.0 | 0.00 | 0.03 | 0.03 | 54 | 1007.0 |
| 20260504035504 | 54 | 259 | 3.0 | 6.0 | 0.00 | 0.03 | 0.03 | 51 | 1007.0 |
| 20260504035004 | 56 | 257 | 4.0 | 7.0 | 0.00 | 0.03 | 0.03 | 51 | 1006.9 |
| 20260504034519 | 56 | 254 | 4.0 | 9.0 | 0.00 | 0.03 | 0.03 | 53 | 1006.9 |
| 20260504034003 | 55 | 251 | 5.0 | 9.0 | 0.00 | 0.03 | 0.03 | 56 | 1006.9 |
| 20260504033504 | 52 | 242 | 3.0 | 6.0 | 0.00 | 0.03 | 0.03 | 63 | 1006.9 |
| 20260504033014 | 51 | 256 | 0.0 | 3.0 | 0.00 | 0.03 | 0.03 | 65 | 1006.9 |
| 20260504032506 | 52 | 252 | 2.0 | 3.0 | 0.00 | 0.03 | 0.03 | 63 | 1006.9 |
| 20260504032003 | 52 | 257 | 1.0 | 3.0 | 0.00 | 0.03 | 0.03 | 63 | 1006.8 |
| 20260504031517 | 52 | 252 | 2.0 | 2.0 | 0.00 | 0.03 | 0.03 | 64 | 1006.8 |
| 20260504031007 | 52 | 247 | 1.0 | 2.0 | 0.00 | 0.03 | 0.03 | 65 | 1006.7 |
| 20260504030508 | 52 | 242 | 0.0 | 2.0 | 0.00 | 0.03 | 0.03 | 65 | 1006.8 |
| 20260504030015 | 52 | 242 | 1.0 | 2.0 | 0.00 | 0.03 | 0.03 | 65 | 1006.7 |
| 20260504025507 | 53 | 238 | 1.0 | 2.0 | 0.00 | 0.03 | 0.03 | 62 | 1006.7 |
| 20260504025007 | 52 | 237 | 1.0 | 2.0 | 0.00 | 0.03 | 0.03 | 65 | 1006.7 |
| 20260504024519 | 52 | 235 | 0.0 | 2.0 | 0.00 | 0.03 | 0.03 | 64 | 1006.7 |
| 20260504024006 | 53 | 242 | 1.0 | 2.0 | 0.00 | 0.03 | 0.03 | 64 | 1006.6 |
| 20260504023506 | 52 | 242 | 0.0 | 2.0 | 0.00 | 0.03 | 0.03 | 68 | 1006.6 |
| 20260504023019 | 51 | 251 | 0.0 | 2.0 | 0.00 | 0.03 | 0.03 | 1006.6 | |
| 20260504022506 | 53 | 360 | 1.0 | 2.0 | 0.00 | 0.03 | 0.03 | 1006.6 | |
| 20260504022008 | 52 | 360 | 1.0 | 2.0 | 0.00 | 0.03 | 0.03 | 1006.6 | |
| 20260504021519 | 52 | 360 | 1.0 | 2.0 | 0.00 | 0.03 | 0.03 | 63 | 1006.5 |
| 20260504021007 | 54 | 253 | 1.0 | 2.0 | 0.00 | 0.03 | 0.03 | 63 | 1006.5 |
| 20260504020503 | 54 | 259 | 1.0 | 3.0 | 0.00 | 0.03 | 0.03 | 65 | 1006.6 |
| 20260504020019 | 54 | 275 | 1.0 | 3.0 | 0.00 | 0.03 | 0.03 | 64 | 1006.6 |
| 20260504015507 | 55 | 166 | 1.0 | 3.0 | 0.00 | 0.03 | 0.03 | 63 | 1006.6 |
| 20260504015010 | 56 | 146 | 0.0 | 2.0 | 0.00 | 0.03 | 0.03 | 63 | 1006.5 |
| 20260504014519 | 57 | 145 | 1.0 | 2.0 | 0.00 | 0.03 | 0.03 | 61 | 1006.6 |
| 20260504014008 | 58 | 145 | 0.0 | 2.0 | 0.00 | 0.03 | 0.03 | 61 | 1006.7 |
| 20260504013507 | 58 | 145 | 0.0 | 2.0 | 0.00 | 0.03 | 0.03 | 61 | 1006.8 |
| 20260504013032 | 60 | 145 | 1.0 | 2.0 | 0.00 | 0.03 | 0.03 | 58 | 1006.9 |
| 20260504012507 | 61 | 145 | 0.0 | 2.0 | 0.00 | 0.03 | 0.03 | 56 | 1006.9 |
| 20260504012011 | 62 | 145 | 0.0 | 2.0 | 0.00 | 0.03 | 0.03 | 55 | 1007.0 |
| 20260504011518 | 63 | 145 | 0.0 | 6.0 | 0.00 | 0.03 | 0.03 | 51 | 1007.1 |
| 20260504011012 | 64 | 145 | 1.0 | 6.0 | 0.00 | 0.03 | 0.03 | 49 | 1007.1 |
| 20260504010507 | 64 | 136 | 3.0 | 5.0 | 0.00 | 0.03 | 0.03 | 50 | 1007.2 |
| 20260504010023 | 64 | 133 | 3.0 | 6.0 | 0.00 | 0.03 | 0.03 | 50 | 1007.3 |
| 20260504005507 | 65 | 157 | 2.0 | 6.0 | 0.00 | 0.03 | 0.03 | 49 | 1007.3 |
| 20260504005008 | 65 | 140 | 2.0 | 4.0 | 0.00 | 0.03 | 0.03 | 48 | 1007.4 |
| 20260504004524 | 66 | 150 | 2.0 | 3.0 | 0.00 | 0.03 | 0.03 | 46 | 1007.4 |
| 20260504004007 | 66 | 131 | 1.0 | 3.0 | 0.00 | 0.03 | 0.03 | 45 | 1007.5 |
| 20260504003507 | 66 | 130 | 2.0 | 4.0 | 0.00 | 0.03 | 0.03 | 42 | 1007.5 |
| 20260504003036 | 66 | 130 | 1.0 | 4.0 | 0.00 | 0.03 | 0.03 | 42 | 1007.6 |
| 20260504002508 | 66 | 160 | 0.0 | 4.0 | 0.00 | 0.03 | 0.03 | 44 | 1007.7 |
| 20260504002007 | 66 | 160 | 1.0 | 5.0 | 0.00 | 0.03 | 0.03 | 43 | 1007.7 |
| 20260504001524 | 67 | 156 | 2.0 | 7.0 | 0.00 | 0.03 | 0.03 | 45 | 1007.8 |
| 20260504001007 | 67 | 215 | 3.0 | 7.0 | 0.00 | 0.03 | 0.03 | 43 | 1007.8 |
| 20260504000507 | 67 | 142 | 3.0 | 11.0 | 0.00 | 0.03 | 0.03 | 39 | 1008.0 |
| 20260504000023 | 67 | 101 | 2.0 | 11.0 | 0.00 | 0.03 | 0.03 | 42 | 1008.1 |
| 20260503235507 | 67 | 59 | 4.0 | 9.0 | 0.00 | 0.03 | 0.03 | 45 | 1008.0 |
| 20260503235008 | 67 | 82 | 3.0 | 9.0 | 0.00 | 0.03 | 0.03 | 42 | 1008.0 |
| 20260503234524 | 67 | 219 | 2.0 | 4.0 | 0.00 | 0.03 | 0.03 | 46 | 1008.2 |
| 20260503234007 | 67 | 74 | 0.0 | 3.0 | 0.00 | 0.03 | 0.03 | 44 | 1008.2 |
| 20260503233508 | 67 | 74 | 1.0 | 3.0 | 0.00 | 0.03 | 0.03 | 44 | 1008.3 |
| 20260503233029 | 68 | 188 | 1.0 | 4.0 | 0.00 | 0.03 | 0.03 | 41 | 1008.3 |
| 20260503232509 | 67 | 157 | 2.0 | 4.0 | 0.00 | 0.03 | 0.03 | 42 | 1008.5 |
| 20260503232011 | 67 | 87 | 1.0 | 3.0 | 0.00 | 0.03 | 0.03 | 40 | 1008.5 |
| 20260503231524 | 67 | 288 | 1.0 | 4.0 | 0.00 | 0.03 | 0.03 | 45 | 1008.6 |
| 20260503231008 | 67 | 243 | 1.0 | 6.0 | 0.00 | 0.03 | 0.03 | 40 | 1008.7 |
| 20260503230509 | 67 | 257 | 2.0 | 10.0 | 0.00 | 0.03 | 0.03 | 44 | 1008.8 |
| 20260503230026 | 66 | 178 | 1.0 | 10.0 | 0.00 | 0.03 | 0.03 | 44 | 1008.9 |
| 20260503225507 | 67 | 176 | 5.0 | 9.0 | 0.00 | 0.03 | 0.03 | 42 | 1009.0 |
| 20260503225014 | 66 | 206 | 5.0 | 9.0 | 0.00 | 0.03 | 0.03 | 46 | 1009.1 |
| 20260503224528 | 66 | 128 | 6.0 | 10.0 | 0.00 | 0.03 | 0.03 | 46 | 1009.3 |
| 20260503224010 | 66 | 188 | 5.0 | 10.0 | 0.00 | 0.03 | 0.03 | 46 | 1009.4 |
| 20260503223507 | 66 | 169 | 3.0 | 13.0 | 0.00 | 0.03 | 0.03 | 45 | 1009.6 |
| 20260503223023 | 66 | 184 | 6.0 | 13.0 | 0.00 | 0.03 | 0.03 | 44 | 1009.8 |
| 20260503222507 | 66 | 198 | 4.0 | 10.0 | 0.00 | 0.03 | 0.03 | 44 | 1010.0 |
| 20260503222007 | 66 | 213 | 6.0 | 10.0 | 0.00 | 0.03 | 0.03 | 44 | 1010.1 |
| 20260503221524 | 66 | 279 | 4.0 | 8.0 | 0.00 | 0.03 | 0.03 | 45 | 1010.2 |
| 20260503221012 | 66 | 261 | 4.0 | 10.0 | 0.00 | 0.03 | 0.03 | 42 | 1010.3 |
| 20260503220504 | 66 | 243 | 5.0 | 10.0 | 0.00 | 0.03 | 0.03 | 44 | 1010.5 |
| 20260503220017 | 65 | 288 | 7.0 | 9.0 | 0.00 | 0.03 | 0.03 | 51 | 1010.6 |
| 20260503215502 | 63 | 259 | 3.0 | 9.0 | 0.00 | 0.03 | 0.03 | 49 | 1010.6 |
| 20260503215003 | 63 | 265 | 5.0 | 9.0 | 0.00 | 0.03 | 0.03 | 49 | 1010.7 |
| 20260503214514 | 64 | 286 | 3.0 | 9.0 | 0.00 | 0.03 | 0.03 | 49 | 1010.8 |
| 20260503214003 | 65 | 194 | 4.0 | 9.0 | 0.00 | 0.03 | 0.03 | 49 | 1010.7 |
| 20260503213504 | 65 | 277 | 3.0 | 8.0 | 0.00 | 0.03 | 0.03 | 51 | 1010.9 |
| 20260503213020 | 64 | 294 | 1.0 | 8.0 | 0.00 | 0.03 | 0.03 | 51 | 1011.1 |
| 20260503212506 | 64 | 289 | 4.0 | 7.0 | 0.00 | 0.03 | 0.03 | 55 | 1011.1 |
| 20260503212003 | 63 | 249 | 2.0 | 4.0 | 0.00 | 0.03 | 0.03 | 58 | 1011.1 |
| 20260503211505 | 62 | 257 | 1.0 | 5.0 | 0.00 | 0.03 | 0.03 | 54 | 1011.1 |
| 20260503211003 | 62 | 229 | 2.0 | 5.0 | 0.01 | 0.03 | 0.03 | 58 | 1011.1 |
| 20260503210503 | 61 | 242 | 3.0 | 4.0 | 0.03 | 0.03 | 0.03 | 61 | 1011.3 |
| 20260503210008 | 59 | 267 | 1.0 | 5.0 | 0.03 | 0.03 | 0.03 | 69 | 1011.5 |
| 20260503205504 | 56 | 239 | 2.0 | 6.0 | 0.03 | 0.03 | 0.03 | 68 | 1011.5 |
| 20260503205004 | 56 | 187 | 3.0 | 8.0 | 0.03 | 0.03 | 0.03 | 68 | 1011.7 |
| 20260503204512 | 56 | 360 | 5.0 | 9.0 | 0.03 | 0.03 | 0.03 | 66 | 1012.1 |
| 20260503204003 | 56 | 360 | 5.0 | 11.0 | 0.03 | 0.03 | 0.03 | 67 | 1012.3 |
| 20260503203506 | 56 | 229 | 4.0 | 11.0 | 0.03 | 0.03 | 0.03 | 70 | 1012.3 |
| 20260503203019 | 55 | 228 | 6.0 | 11.0 | 0.03 | 0.03 | 0.03 | 71 | 1012.4 |
| 20260503202509 | 55 | 242 | 6.0 | 9.0 | 0.03 | 0.03 | 0.03 | 71 | 1012.4 |
| 20260503202010 | 56 | 250 | 4.0 | 10.0 | 0.03 | 0.03 | 0.03 | 64 | 1012.4 |
| 20260503201524 | 57 | 231 | 4.0 | 20.0 | 0.03 | 0.03 | 0.03 | 64 | 1012.3 |
| 20260503201003 | 59 | 266 | 11.0 | 20.0 | 0.02 | 0.02 | 0.02 | 57 | 1012.6 |
| 20260503200505 | 62 | 277 | 7.0 | 16.0 | 0.00 | 0.00 | 0.00 | 52 | 1012.2 |
| 20260503200005 | 64 | 333 | 12.0 | 16.0 | 0.00 | 0.00 | 0.00 | 45 | 1011.9 |
| 20260503195504 | 65 | 326 | 7.0 | 13.0 | 0.00 | 0.00 | 0.00 | 39 | 1011.7 |
| 20260503195003 | 66 | 352 | 6.0 | 13.0 | 0.00 | 0.00 | 0.00 | 37 | 1011.7 |
| 20260503194512 | 66 | 321 | 2.0 | 8.0 | 0.00 | 0.00 | 0.00 | 38 | 1011.6 |
| 20260503194003 | 66 | 311 | 4.0 | 9.0 | 0.00 | 0.00 | 0.00 | 40 | 1011.6 |
| 20260503193507 | 67 | 284 | 1.0 | 10.0 | 0.00 | 0.00 | 0.00 | 39 | 1011.7 |
| 20260503193017 | 69 | 298 | 4.0 | 10.0 | 0.00 | 0.00 | 0.00 | 35 | 1011.8 |
| 20260503192506 | 69 | 278 | 4.0 | 10.0 | 0.00 | 0.00 | 0.00 | 34 | 1011.8 |
| 20260503192008 | 69 | 300 | 4.0 | 10.0 | 0.00 | 0.00 | 0.00 | 39 | 1011.9 |
| 20260503191520 | 67 | 341 | 3.0 | 9.0 | 0.00 | 0.00 | 0.00 | 40 | 1012.0 |
| 20260503191010 | 66 | 289 | 1.0 | 6.0 | 0.00 | 0.00 | 0.00 | 36 | 1012.0 |
| 20260503190509 | 67 | 40 | 2.0 | 9.0 | 0.00 | 0.00 | 0.00 | 38 | 1012.3 |
| 20260503190025 | 68 | 24 | 3.0 | 13.0 | 0.00 | 0.00 | 0.00 | 35 | 1012.4 |
| 20260503185503 | 68 | 350 | 9.0 | 13.0 | 0.00 | 0.00 | 0.00 | 38 | 1012.4 |
| 20260503185004 | 67 | 336 | 6.0 | 10.0 | 0.00 | 0.00 | 0.00 | 40 | 1012.4 |
| 20260503184513 | 66 | 313 | 4.0 | 8.0 | 0.00 | 0.00 | 0.00 | 38 | 1012.7 |
| 20260503184007 | 66 | 261 | 1.0 | 8.0 | 0.00 | 0.00 | 0.00 | 40 | 1012.7 |
| 20260503183504 | 66 | 296 | 4.0 | 12.0 | 0.00 | 0.00 | 0.00 | 37 | 1012.8 |
| 20260503183016 | 66 | 331 | 5.0 | 12.0 | 0.00 | 0.00 | 0.00 | 37 | 1012.8 |
| 20260503182503 | 67 | 334 | 4.0 | 12.0 | 0.00 | 0.00 | 0.00 | 34 | 1013.0 |
| 20260503182007 | 68 | 312 | 8.0 | 12.0 | 0.00 | 0.00 | 0.00 | 36 | 1013.0 |
| 20260503181517 | 67 | 339 | 7.0 | 13.0 | 0.00 | 0.00 | 0.00 | 37 | 1013.0 |
| 20260503181007 | 67 | 306 | 8.0 | 13.0 | 0.00 | 0.00 | 0.00 | 36 | 1013.1 |
| 20260503180508 | 67 | 284 | 5.0 | 12.0 | 0.00 | 0.00 | 0.00 | 39 | 1013.2 |
| 20260503180031 | 67 | 303 | 6.0 | 16.0 | 0.00 | 0.00 | 0.00 | 36 | 1013.3 |
| 20260503175507 | 67 | 9 | 9.0 | 16.0 | 0.00 | 0.00 | 0.00 | 39 | 1013.3 |
| 20260503175007 | 68 | 309 | 9.0 | 13.0 | 0.00 | 0.00 | 0.00 | 38 | 1013.4 |
| 20260503174530 | 67 | 329 | 8.0 | 12.0 | 0.00 | 0.00 | 0.00 | 38 | 1013.5 |
| 20260503174003 | 67 | 11 | 7.0 | 12.0 | 0.00 | 0.00 | 0.00 | 39 | 1013.6 |
| 20260503173504 | 66 | 360 | 4.0 | 15.0 | 0.00 | 0.00 | 0.00 | 38 | 1013.7 |
| 20260503173010 | 66 | 39 | 6.0 | 15.0 | 0.00 | 0.00 | 0.00 | 39 | 1013.8 |
| 20260503172504 | 66 | 319 | 6.0 | 12.0 | 0.00 | 0.00 | 0.00 | 40 | 1013.9 |
| 20260503172004 | 66 | 32 | 5.0 | 12.0 | 0.00 | 0.00 | 0.00 | 39 | 1014.0 |
| 20260503171516 | 66 | 328 | 7.0 | 12.0 | 0.00 | 0.00 | 0.00 | 41 | 1014.1 |
| 20260503171003 | 66 | 35 | 6.0 | 11.0 | 0.00 | 0.00 | 0.00 | 41 | 1014.1 |
| 20260503170507 | 64 | 316 | 3.0 | 8.0 | 0.00 | 0.00 | 0.00 | 41 | 1014.2 |
| 20260503151006 | 58 | 9 | 2.0 | 3.0 | 0.00 | 0.00 | 0.00 | 46 | 1015.1 |
| 20260503131008 | 52 | 265 | 1.0 | 2.0 | 0.00 | 0.00 | 0.00 | 68 | 1015.9 |
| 20260503130507 | 51 | 254 | 0.0 | 2.0 | 0.00 | 0.00 | 0.00 | 70 | 1015.9 |